createdAt,value
2019-03-15T00:00:28.112Z,93.80
2019-03-15T00:02:59.567Z,88.60
2019-03-15T00:05:31.614Z,94.00
2019-03-15T00:08:03.236Z,91.00
2019-03-15T00:10:35.030Z,92.40
2019-03-15T00:13:06.487Z,90.00
2019-03-15T00:15:38.270Z,93.80
2019-03-15T00:18:09.760Z,91.20
2019-03-15T00:20:41.578Z,93.40
2019-03-15T00:23:13.372Z,85.00
2019-03-15T00:25:45.111Z,93.40
2019-03-15T00:28:17.978Z,91.00
2019-03-15T00:30:49.730Z,85.40
2019-03-15T00:33:21.514Z,82.80
2019-03-15T00:35:53.180Z,88.00
2019-03-15T00:38:25.027Z,87.40
2019-03-15T00:40:56.901Z,94.60
2019-03-15T00:43:28.602Z,90.00
2019-03-15T00:46:00.108Z,92.20
2019-03-15T00:48:31.970Z,98.20
2019-03-15T00:51:03.699Z,99.00
2019-03-15T00:53:35.404Z,100.40
2019-03-15T00:56:07.119Z,104.40
2019-03-15T00:58:38.860Z,104.00
2019-03-15T01:01:10.594Z,100.60
2019-03-15T01:03:42.323Z,109.40
2019-03-15T01:06:14.064Z,104.60
2019-03-15T01:08:45.555Z,106.20
2019-03-15T01:11:17.128Z,130.60
2019-03-15T01:13:49.084Z,117.40
2019-03-15T01:16:20.485Z,109.00
2019-03-15T01:18:52.389Z,112.20
2019-03-15T01:21:23.979Z,115.00
2019-03-15T01:23:55.776Z,123.20
2019-03-15T01:26:27.237Z,118.80
2019-03-15T01:28:59.122Z,137.20
2019-03-15T01:31:30.541Z,129.60
2019-03-15T01:34:02.164Z,89.00
2019-03-15T01:36:33.742Z,103.40
2019-03-15T01:39:05.940Z,104.20
2019-03-15T01:41:37.262Z,101.60
2019-03-15T01:44:08.700Z,108.20
2019-03-15T01:46:40.830Z,121.80
2019-03-15T01:49:12.383Z,116.80
2019-03-15T01:51:44.038Z,106.00
2019-03-15T01:54:16.749Z,110.00
2019-03-15T01:56:48.268Z,110.40
2019-03-15T01:59:20.056Z,113.20
2019-03-15T02:01:51.628Z,106.80
2019-03-15T02:04:23.419Z,129.80
2019-03-15T02:06:55.121Z,132.40
2019-03-15T02:09:26.596Z,136.40
2019-03-15T02:11:58.560Z,117.80
2019-03-15T02:14:29.826Z,115.00
2019-03-15T02:17:01.177Z,125.40
2019-03-15T02:19:32.607Z,129.80
2019-03-15T02:22:04.283Z,118.80
2019-03-15T02:24:36.263Z,122.80
2019-03-15T02:27:08.175Z,136.60
2019-03-15T02:29:39.884Z,140.60
2019-03-15T02:32:12.859Z,135.40
2019-03-15T02:34:44.688Z,115.40
2019-03-15T02:37:19.985Z,118.20
2019-03-15T02:39:51.885Z,116.20
2019-03-15T02:42:23.763Z,130.60
2019-03-15T02:44:56.177Z,121.60
2019-03-15T02:47:28.018Z,123.60
2019-03-15T02:50:00.638Z,122.60
2019-03-15T02:52:32.830Z,131.40
2019-03-15T02:55:04.565Z,145.20
2019-03-15T02:57:37.290Z,115.80
2019-03-15T03:00:09.314Z,142.00
2019-03-15T03:02:41.151Z,146.60
2019-03-15T03:05:13.035Z,236.25
2019-03-15T03:07:44.742Z,235.25
2019-03-15T03:10:16.618Z,222.50
2019-03-15T03:12:49.065Z,217.75
2019-03-15T03:15:20.933Z,177.00
2019-03-15T03:17:52.676Z,167.80
2019-03-15T03:20:24.437Z,186.40
2019-03-15T03:22:55.940Z,169.60
2019-03-15T03:25:27.504Z,147.20
2019-03-15T03:27:59.540Z,163.20
2019-03-15T03:30:32.601Z,137.60
2019-03-15T03:33:04.293Z,166.20
2019-03-15T03:35:36.128Z,142.60
2019-03-15T03:38:07.912Z,144.20
2019-03-15T03:40:39.433Z,138.80
2019-03-15T03:43:11.380Z,128.20
2019-03-15T03:45:43.062Z,138.40
2019-03-15T03:48:15.818Z,130.60
2019-03-15T03:50:48.146Z,134.60
2019-03-15T03:53:19.783Z,152.20
2019-03-15T03:55:51.714Z,144.00
2019-03-15T03:58:23.916Z,133.80
2019-03-15T04:00:55.337Z,132.60
2019-03-15T04:03:27.400Z,136.80
2019-03-15T04:05:59.343Z,116.80
2019-03-15T04:08:30.755Z,131.40
2019-03-15T04:11:02.385Z,119.60
2019-03-15T04:13:34.307Z,131.00
2019-03-15T04:16:06.091Z,126.80
2019-03-15T04:18:37.909Z,136.00
2019-03-15T04:21:09.462Z,148.80
2019-03-15T04:23:41.371Z,115.20
2019-03-15T04:26:12.947Z,115.20
2019-03-15T04:28:44.690Z,102.60
2019-03-15T04:31:16.172Z,109.80
2019-03-15T04:33:47.806Z,116.20
2019-03-15T04:36:19.530Z,96.40
2019-03-15T04:38:51.529Z,109.60
2019-03-15T04:41:23.302Z,113.20
2019-03-15T04:43:55.114Z,112.80
2019-03-15T04:46:27.084Z,98.20
2019-03-15T04:48:58.397Z,106.60
2019-03-15T04:51:29.810Z,116.40
2019-03-15T04:54:01.675Z,108.60
2019-03-15T04:56:33.493Z,119.40
2019-03-15T04:59:05.358Z,110.00
2019-03-15T05:01:37.550Z,107.40
2019-03-15T05:04:09.274Z,119.60
2019-03-15T05:06:41.365Z,114.60
2019-03-15T05:09:13.204Z,118.00
2019-03-15T05:11:45.063Z,114.40
2019-03-15T05:14:17.032Z,100.20
2019-03-15T05:16:49.529Z,94.00
2019-03-15T05:19:22.168Z,97.60
2019-03-15T05:21:54.004Z,99.60
2019-03-15T05:24:25.654Z,92.20
2019-03-15T05:26:57.144Z,99.80
2019-03-15T05:29:28.993Z,95.00
2019-03-15T05:32:00.757Z,96.60
2019-03-15T05:34:33.381Z,94.40
2019-03-15T05:37:04.995Z,92.40
2019-03-15T05:39:37.088Z,85.80
2019-03-15T05:42:09.255Z,92.80
2019-03-15T05:44:41.591Z,88.40
2019-03-15T05:47:13.672Z,86.40
2019-03-15T05:49:45.197Z,86.80
2019-03-15T05:52:17.140Z,81.60
2019-03-15T05:54:48.878Z,84.00
2019-03-15T05:57:20.727Z,80.00
2019-03-15T05:59:53.020Z,82.20
2019-03-15T06:02:25.231Z,84.40
2019-03-15T06:04:57.926Z,78.60
2019-03-15T06:07:29.951Z,77.00
2019-03-15T06:10:01.859Z,73.00
2019-03-15T06:12:33.593Z,74.60
2019-03-15T06:15:05.920Z,78.20
2019-03-15T06:17:38.165Z,75.80
2019-03-15T06:20:10.700Z,68.80
2019-03-15T06:22:42.664Z,62.60
2019-03-15T06:25:15.232Z,51.00
2019-03-15T06:27:47.537Z,57.20
2019-03-15T06:30:19.821Z,59.80
2019-03-15T06:32:51.764Z,61.20
2019-03-15T06:35:24.031Z,61.40
2019-03-15T06:37:56.119Z,55.80
2019-03-15T06:40:28.130Z,67.60
2019-03-15T06:43:00.756Z,66.80
2019-03-15T06:45:32.582Z,66.00
2019-03-15T06:48:05.188Z,68.80
2019-03-15T06:50:39.882Z,63.00
2019-03-15T06:53:13.988Z,62.60
2019-03-15T06:55:47.358Z,58.20
2019-03-15T06:58:20.415Z,63.20
2019-03-15T07:00:54.914Z,71.60
2019-03-15T07:03:28.683Z,73.40
2019-03-15T07:06:03.135Z,69.60
2019-03-15T07:08:37.638Z,65.00
2019-03-15T07:11:12.773Z,59.20
2019-03-15T07:13:48.705Z,66.60
2019-03-15T07:16:23.986Z,69.40
2019-03-15T07:18:58.923Z,71.80
2019-03-15T07:21:36.803Z,70.80
2019-03-15T07:24:24.193Z,67.40
2019-03-15T07:26:51.610Z,67.40
2019-03-15T07:29:26.649Z,68.80
2019-03-15T07:32:02.336Z,63.40
2019-03-15T07:34:36.795Z,75.60
2019-03-15T07:37:11.541Z,74.40
2019-03-15T07:39:46.682Z,78.00
2019-03-15T07:42:18.946Z,75.00
2019-03-15T07:44:51.259Z,76.40
2019-03-15T07:47:23.302Z,72.20
2019-03-15T07:49:55.727Z,71.40
2019-03-15T07:52:28.555Z,70.60
2019-03-15T07:55:00.715Z,66.80
2019-03-15T07:57:32.713Z,71.00
2019-03-15T08:00:04.813Z,62.40
2019-03-15T08:02:36.428Z,70.20
2019-03-15T08:05:09.192Z,68.80
2019-03-15T08:07:45.153Z,66.20
2019-03-15T08:10:15.701Z,63.80
2019-03-15T08:12:49.725Z,64.00
2019-03-15T08:15:24.501Z,65.00
2019-03-15T08:17:59.375Z,60.00
2019-03-15T08:20:35.722Z,62.40
2019-03-15T08:23:11.356Z,55.40
2019-03-15T08:25:46.286Z,63.40
2019-03-15T08:28:22.138Z,61.60
2019-03-15T08:30:57.215Z,59.80
2019-03-15T08:33:32.245Z,58.60
2019-03-15T08:36:09.552Z,56.60
2019-03-15T08:38:47.893Z,62.60
2019-03-15T08:41:20.783Z,56.80
2019-03-15T08:43:55.393Z,59.40
2019-03-15T08:46:29.642Z,53.20
2019-03-15T08:49:06.249Z,57.00
2019-03-15T08:51:42.577Z,55.20
2019-03-15T08:54:17.328Z,58.40
2019-03-15T08:56:52.609Z,55.60
2019-03-15T08:59:28.730Z,53.20
2019-03-15T09:02:04.067Z,53.40
2019-03-15T09:04:38.836Z,54.60
2019-03-15T09:07:13.547Z,52.80
2019-03-15T09:09:50.559Z,59.00
2019-03-15T09:12:29.126Z,51.80
2019-03-15T09:15:04.510Z,55.20
2019-03-15T09:17:41.412Z,49.60
2019-03-15T09:20:16.822Z,43.80
2019-03-15T09:22:54.905Z,49.80
2019-03-15T09:25:29.527Z,52.60
2019-03-15T09:28:05.767Z,39.20
2019-03-15T09:30:40.289Z,41.80
2019-03-15T09:33:15.112Z,52.60
2019-03-15T09:35:50.981Z,49.40
2019-03-15T09:38:26.300Z,47.20
2019-03-15T09:41:03.415Z,34.40
2019-03-15T09:43:45.240Z,36.60
2019-03-15T09:46:21.004Z,39.20
2019-03-15T09:48:59.800Z,37.60
2019-03-15T09:51:39.266Z,35.40
2019-03-15T09:54:15.770Z,27.00
2019-03-15T09:56:57.800Z,52.40
2019-03-15T09:59:32.397Z,44.80
2019-03-15T10:02:08.435Z,38.60
2019-03-15T10:04:42.812Z,41.40
2019-03-15T10:07:19.081Z,31.20
2019-03-15T10:09:56.083Z,26.80
2019-03-15T10:12:31.192Z,28.20
2019-03-15T10:15:08.132Z,33.60
2019-03-15T10:17:47.145Z,36.20
2019-03-15T10:20:21.811Z,34.00
2019-03-15T10:23:06.126Z,32.40
2019-03-15T10:25:46.041Z,34.60
2019-03-15T10:28:11.854Z,39.00
2019-03-15T10:30:49.384Z,36.60
2019-03-15T10:33:30.491Z,35.00
2019-03-15T10:36:05.733Z,45.80
2019-03-15T10:38:43.966Z,38.80
2019-03-15T10:41:18.763Z,34.80
2019-03-15T10:43:55.176Z,38.40
2019-03-15T10:46:29.739Z,31.00
2019-03-15T10:49:04.571Z,30.20
2019-03-15T10:51:39.052Z,9.20
2019-03-15T10:54:16.320Z,36.60
2019-03-15T10:56:51.453Z,39.80
2019-03-15T10:59:26.350Z,43.20
2019-03-15T11:02:01.321Z,46.40
2019-03-15T11:04:35.630Z,49.40
2019-03-15T11:07:09.765Z,45.40
2019-03-15T11:09:42.953Z,36.40
2019-03-15T11:12:15.110Z,45.60
2019-03-15T11:14:47.060Z,38.20
2019-03-15T11:17:18.634Z,47.40
2019-03-15T11:19:50.624Z,49.60
2019-03-15T11:22:22.386Z,53.60
2019-03-15T11:24:54.332Z,48.40
2019-03-15T11:27:26.574Z,48.60
2019-03-15T11:29:58.685Z,44.40
2019-03-15T11:32:30.684Z,52.20
2019-03-15T11:35:02.705Z,53.80
2019-03-15T11:37:34.514Z,54.20
2019-03-15T11:40:07.198Z,49.40
2019-03-15T11:42:39.461Z,49.60
2019-03-15T11:45:13.649Z,53.20
2019-03-15T11:48:02.495Z,54.40
2019-03-15T11:50:24.705Z,47.00
2019-03-15T11:52:58.331Z,52.80
2019-03-15T11:55:32.200Z,52.40
2019-03-15T11:58:05.517Z,57.80
2019-03-15T12:00:38.818Z,56.00
2019-03-15T12:03:11.752Z,56.80
2019-03-15T12:05:43.742Z,63.20
2019-03-15T12:08:15.399Z,61.60
2019-03-15T12:10:47.078Z,60.00
2019-03-15T12:13:18.909Z,56.80
2019-03-15T12:15:50.596Z,62.20
2019-03-15T12:18:22.381Z,64.20
2019-03-15T12:20:54.176Z,68.80
2019-03-15T12:23:26.081Z,70.00
2019-03-15T12:25:57.725Z,70.20
2019-03-15T12:28:29.533Z,64.60
2019-03-15T12:31:01.289Z,67.00
2019-03-15T12:33:33.106Z,64.80
2019-03-15T12:36:05.071Z,63.80
2019-03-15T12:38:36.892Z,68.40
2019-03-15T12:41:08.639Z,64.20
2019-03-15T12:43:40.254Z,63.40
2019-03-15T12:46:12.012Z,66.60
2019-03-15T12:48:43.889Z,66.00
2019-03-15T12:51:15.835Z,64.80
2019-03-15T12:53:47.622Z,64.60
2019-03-15T12:56:19.230Z,68.00
2019-03-15T12:58:51.399Z,64.00
2019-03-15T13:01:22.978Z,63.60
2019-03-15T13:03:54.560Z,64.60
2019-03-15T13:06:26.234Z,66.00
2019-03-15T13:08:58.133Z,64.00
2019-03-15T13:11:30.138Z,67.80
2019-03-15T13:14:03.858Z,61.20
2019-03-15T13:16:35.531Z,66.60
2019-03-15T13:19:07.133Z,69.00
2019-03-15T13:21:38.854Z,66.00
2019-03-15T13:24:10.646Z,67.40
2019-03-15T13:26:42.229Z,68.60
2019-03-15T13:29:14.428Z,66.20
2019-03-15T13:31:45.936Z,74.60
2019-03-15T13:34:18.115Z,72.20
2019-03-15T13:36:50.243Z,72.60
2019-03-15T13:39:22.111Z,79.40
2019-03-15T13:41:54.436Z,75.60
2019-03-15T13:44:26.424Z,78.60
2019-03-15T13:46:58.131Z,75.00
2019-03-15T13:49:29.860Z,69.40
2019-03-15T13:52:01.610Z,71.40
2019-03-15T13:54:33.034Z,74.60
2019-03-15T13:57:04.729Z,73.60
2019-03-15T13:59:36.891Z,75.40
2019-03-15T14:02:11.704Z,74.40
2019-03-15T14:04:43.523Z,72.60
2019-03-15T14:07:15.270Z,76.60
2019-03-15T14:09:47.114Z,78.60
2019-03-15T14:12:19.130Z,74.00
2019-03-15T14:14:51.418Z,80.20
2019-03-15T14:17:23.127Z,71.20
2019-03-15T14:19:54.762Z,81.20
2019-03-15T14:22:26.172Z,75.40
2019-03-15T14:24:57.739Z,84.20
2019-03-15T14:27:37.502Z,72.60
2019-03-15T14:30:04.263Z,76.40
2019-03-15T14:32:35.717Z,79.20
2019-03-15T14:35:07.614Z,79.20
2019-03-15T14:37:39.218Z,76.40
2019-03-15T14:40:10.809Z,81.80
2019-03-15T14:42:42.547Z,81.00
2019-03-15T14:45:14.303Z,82.20
2019-03-15T14:47:46.124Z,91.80
2019-03-15T14:50:18.098Z,90.20
2019-03-15T14:52:49.697Z,94.00
2019-03-15T14:55:21.590Z,97.80
2019-03-15T14:57:53.730Z,102.40
2019-03-15T15:00:25.512Z,105.20
2019-03-15T15:02:57.406Z,104.40
2019-03-15T15:05:29.132Z,101.40
2019-03-15T15:08:00.935Z,114.00
2019-03-15T15:10:32.976Z,109.60
2019-03-15T15:13:04.687Z,106.20
2019-03-15T15:15:36.653Z,93.20
2019-03-15T15:18:08.063Z,102.80
2019-03-15T15:20:39.862Z,107.20
2019-03-15T15:23:11.455Z,106.80
2019-03-15T15:25:43.498Z,104.00
2019-03-15T15:28:14.977Z,120.20
2019-03-15T15:30:46.766Z,103.40
2019-03-15T15:33:19.155Z,106.80
2019-03-15T15:35:50.829Z,116.20
2019-03-15T15:38:22.436Z,108.80
2019-03-15T15:40:54.487Z,113.40
2019-03-15T15:43:27.145Z,93.40
2019-03-15T15:45:58.904Z,111.20
2019-03-15T15:48:30.350Z,113.20
2019-03-15T15:51:02.136Z,107.20
2019-03-15T15:53:33.583Z,108.80
2019-03-15T15:56:05.634Z,104.60
2019-03-15T15:58:37.038Z,109.00
2019-03-15T16:01:08.971Z,104.00
2019-03-15T16:03:41.142Z,112.40
2019-03-15T16:06:12.576Z,115.00
2019-03-15T16:08:43.747Z,105.60
2019-03-15T16:11:15.755Z,101.80
2019-03-15T16:13:47.388Z,103.40
2019-03-15T16:16:19.240Z,102.20
2019-03-15T16:18:50.888Z,105.40
2019-03-15T16:21:22.791Z,105.00
2019-03-15T16:23:55.024Z,104.00
2019-03-15T16:26:29.046Z,103.00
2019-03-15T16:29:00.514Z,116.80
2019-03-15T16:31:32.297Z,97.40
2019-03-15T16:34:04.610Z,104.00
2019-03-15T16:36:36.278Z,109.00
2019-03-15T16:39:09.740Z,114.40
2019-03-15T16:41:41.266Z,98.40
2019-03-15T16:44:13.012Z,106.40
2019-03-15T16:46:44.368Z,105.20
2019-03-15T16:49:16.225Z,103.60
2019-03-15T16:51:47.482Z,103.80
2019-03-15T16:54:20.121Z,103.00
2019-03-15T16:56:51.851Z,113.80
2019-03-15T16:59:24.679Z,108.60
2019-03-15T17:01:56.158Z,109.60
2019-03-15T17:04:30.532Z,106.80
2019-03-15T17:07:01.949Z,107.40
2019-03-15T17:09:33.546Z,94.00
2019-03-15T17:12:05.061Z,100.80
2019-03-15T17:14:36.828Z,93.40
2019-03-15T17:17:09.067Z,96.60
2019-03-15T17:19:41.026Z,94.00
2019-03-15T17:22:13.837Z,93.00
2019-03-15T17:24:45.365Z,90.80
2019-03-15T17:27:17.027Z,94.20
2019-03-15T17:29:49.540Z,89.60
2019-03-15T17:32:21.048Z,95.20
2019-03-15T17:34:52.866Z,96.20
2019-03-15T17:37:24.478Z,93.80
2019-03-15T17:39:56.043Z,88.80
2019-03-15T17:42:27.452Z,91.60
2019-03-15T17:44:58.753Z,90.80
2019-03-15T17:47:30.134Z,94.20
2019-03-15T17:50:01.788Z,90.80
2019-03-15T17:52:33.353Z,92.20
2019-03-15T17:55:04.859Z,90.00
2019-03-15T17:57:36.841Z,91.20
2019-03-15T18:00:19.614Z,90.60
2019-03-15T18:02:51.268Z,95.00
2019-03-15T18:05:22.972Z,86.20
2019-03-15T18:07:55.040Z,89.40
2019-03-15T18:10:27.017Z,90.00
2019-03-15T18:12:58.685Z,94.00
2019-03-15T18:15:30.702Z,91.00
2019-03-15T18:18:02.208Z,93.40
2019-03-15T18:20:33.711Z,86.40
2019-03-15T18:23:05.460Z,89.40
2019-03-15T18:25:37.072Z,89.00
2019-03-15T18:28:08.746Z,89.40
2019-03-15T18:30:40.243Z,93.20
2019-03-15T18:33:12.002Z,95.80
2019-03-15T18:35:43.546Z,93.00
2019-03-15T18:38:15.205Z,88.40
2019-03-15T18:40:46.983Z,93.20
2019-03-15T18:43:18.728Z,94.00
2019-03-15T18:45:50.240Z,91.80
2019-03-15T18:48:22.057Z,93.20
2019-03-15T18:50:53.917Z,94.20
2019-03-15T18:53:25.639Z,95.80
2019-03-15T18:55:57.143Z,93.40
2019-03-15T18:58:29.068Z,95.80
2019-03-15T19:01:00.472Z,101.00
2019-03-15T19:03:31.880Z,103.40
2019-03-15T19:06:03.273Z,104.20
2019-03-15T19:08:34.393Z,94.00
2019-03-15T19:11:06.466Z,102.20
2019-03-15T19:13:39.141Z,94.40
2019-03-15T19:16:20.004Z,92.40
2019-03-15T19:18:44.199Z,93.60
2019-03-15T19:21:15.799Z,99.40
2019-03-15T19:23:47.529Z,104.60
2019-03-15T19:26:19.363Z,99.00
2019-03-15T19:28:50.670Z,107.40
2019-03-15T19:31:22.041Z,97.80
2019-03-15T19:33:53.278Z,101.60
2019-03-15T19:36:24.707Z,102.80
2019-03-15T19:38:56.306Z,101.60
2019-03-15T19:41:28.126Z,98.60
2019-03-15T19:43:59.517Z,93.00
2019-03-15T19:46:31.265Z,98.60
2019-03-15T19:49:02.830Z,98.80
2019-03-15T19:51:34.583Z,102.60
2019-03-15T19:54:06.365Z,102.40
2019-03-15T19:56:38.130Z,97.60
2019-03-15T19:59:09.768Z,99.40
2019-03-15T20:01:41.388Z,97.80
2019-03-15T20:04:13.098Z,94.00
2019-03-15T20:06:44.568Z,98.00
2019-03-15T20:09:16.341Z,102.00
2019-03-15T20:11:48.345Z,98.60
2019-03-15T20:14:20.088Z,97.20
2019-03-15T20:16:51.669Z,103.20
2019-03-15T20:19:23.375Z,107.20
2019-03-15T20:21:55.018Z,109.60
2019-03-15T20:24:26.456Z,102.20
2019-03-15T20:26:57.851Z,98.00
2019-03-15T20:29:30.066Z,94.40
2019-03-15T20:32:01.267Z,105.40
2019-03-15T20:34:32.609Z,102.80
2019-03-15T20:37:04.140Z,99.20
2019-03-15T20:39:35.989Z,97.00
2019-03-15T20:42:07.433Z,99.40
2019-03-15T20:44:39.147Z,94.00
2019-03-15T20:47:11.981Z,105.00
2019-03-15T20:49:43.465Z,96.20
2019-03-15T20:52:14.725Z,98.60
2019-03-15T20:54:46.175Z,99.80
2019-03-15T20:57:17.550Z,93.80
2019-03-15T20:59:48.896Z,96.20
2019-03-15T21:02:20.320Z,97.40
2019-03-15T21:04:51.658Z,98.80
2019-03-15T21:07:22.933Z,97.20
2019-03-15T21:09:54.147Z,98.00
2019-03-15T21:12:25.463Z,103.20
2019-03-15T21:14:57.023Z,106.40
2019-03-15T21:17:28.533Z,106.60
2019-03-15T21:20:00.344Z,97.40
2019-03-15T21:22:31.698Z,111.80
2019-03-15T21:25:03.147Z,101.40
2019-03-15T21:27:34.419Z,100.20
2019-03-15T21:30:06.665Z,98.00
2019-03-15T21:32:38.400Z,100.40
2019-03-15T21:35:10.213Z,98.40
2019-03-15T21:37:41.633Z,100.00
2019-03-15T21:40:13.550Z,96.00
2019-03-15T21:42:44.914Z,101.20
2019-03-15T21:45:16.723Z,99.60
2019-03-15T21:47:48.005Z,98.00
2019-03-15T21:50:19.963Z,98.80
2019-03-15T21:52:51.434Z,98.80
2019-03-15T21:55:22.696Z,104.40
2019-03-15T21:57:54.293Z,98.00
2019-03-15T22:00:25.764Z,105.60
2019-03-15T22:02:57.218Z,100.00
2019-03-15T22:05:29.142Z,113.80
2019-03-15T22:08:00.452Z,103.00
2019-03-15T22:10:31.982Z,100.80
2019-03-15T22:13:03.336Z,102.60
2019-03-15T22:15:34.816Z,103.60
2019-03-15T22:18:06.303Z,98.00
2019-03-15T22:20:38.746Z,97.40
2019-03-15T22:23:09.900Z,99.60
2019-03-15T22:25:41.322Z,101.20
2019-03-15T22:28:12.941Z,103.40
2019-03-15T22:30:44.352Z,105.20
2019-03-15T22:33:15.901Z,101.80
2019-03-15T22:35:47.800Z,112.20
2019-03-15T22:38:26.239Z,99.80
2019-03-15T22:40:52.638Z,99.00
2019-03-15T22:43:24.600Z,105.20
2019-03-15T22:45:55.806Z,113.00
2019-03-15T22:48:27.479Z,102.60
2019-03-15T22:50:58.737Z,101.20
2019-03-15T22:53:30.445Z,114.00
2019-03-15T22:56:02.012Z,97.40
2019-03-15T22:58:34.389Z,120.20
2019-03-15T23:01:06.729Z,106.60
2019-03-15T23:03:40.334Z,102.60
2019-03-15T23:06:12.750Z,116.60
2019-03-15T23:08:44.059Z,111.40
2019-03-15T23:11:15.465Z,109.60
2019-03-15T23:13:46.711Z,105.80
2019-03-15T23:16:18.443Z,111.00
2019-03-15T23:18:49.803Z,107.20
2019-03-15T23:21:21.402Z,104.20
2019-03-15T23:23:52.726Z,114.00
2019-03-15T23:26:24.096Z,112.20
2019-03-15T23:28:55.540Z,112.00
2019-03-15T23:31:26.886Z,101.80
2019-03-15T23:33:58.395Z,113.60
2019-03-15T23:36:29.632Z,110.40
2019-03-15T23:39:01.380Z,110.80
2019-03-15T23:41:33.555Z,103.60
2019-03-15T23:44:05.071Z,105.80
2019-03-15T23:46:36.455Z,124.20
2019-03-15T23:49:09.088Z,117.20
2019-03-15T23:51:40.357Z,103.20
2019-03-15T23:54:11.733Z,113.60
2019-03-15T23:56:43.126Z,111.40
2019-03-15T23:59:14.780Z,101.20
